sensor_id;sensor_type;location;lat;lon;timestamp;P1;durP1;ratioP1;P2;durP2;ratioP2
22843;SDS011;11588;51.178;4.852;2023-08-12T00:01:06;1.77;;;1.27;;
22843;SDS011;11588;51.178;4.852;2023-08-12T00:03:32;2.40;;;1.20;;
22843;SDS011;11588;51.178;4.852;2023-08-12T00:05:59;2.15;;;1.63;;
22843;SDS011;11588;51.178;4.852;2023-08-12T00:08:28;3.03;;;1.30;;
22843;SDS011;11588;51.178;4.852;2023-08-12T00:10:55;5.80;;;1.75;;
22843;SDS011;11588;51.178;4.852;2023-08-12T00:13:22;3.03;;;1.58;;
22843;SDS011;11588;51.178;4.852;2023-08-12T00:15:49;2.15;;;1.35;;
22843;SDS011;11588;51.178;4.852;2023-08-12T00:18:15;2.33;;;1.17;;
22843;SDS011;11588;51.178;4.852;2023-08-12T00:20:42;3.10;;;1.27;;
22843;SDS011;11588;51.178;4.852;2023-08-12T00:23:10;2.30;;;1.40;;
22843;SDS011;11588;51.178;4.852;2023-08-12T00:25:36;3.05;;;1.65;;
22843;SDS011;11588;51.178;4.852;2023-08-12T00:28:05;2.92;;;1.30;;
22843;SDS011;11588;51.178;4.852;2023-08-12T00:30:32;2.72;;;1.20;;
22843;SDS011;11588;51.178;4.852;2023-08-12T00:32:58;7.00;;;2.20;;
22843;SDS011;11588;51.178;4.852;2023-08-12T00:35:25;2.60;;;1.33;;
22843;SDS011;11588;51.178;4.852;2023-08-12T00:37:52;1.60;;;1.15;;
22843;SDS011;11588;51.178;4.852;2023-08-12T00:40:19;4.38;;;1.60;;
22843;SDS011;11588;51.178;4.852;2023-08-12T00:42:46;4.32;;;1.80;;
22843;SDS011;11588;51.178;4.852;2023-08-12T00:45:12;3.25;;;1.65;;
22843;SDS011;11588;51.178;4.852;2023-08-12T00:47:38;2.83;;;1.70;;
22843;SDS011;11588;51.178;4.852;2023-08-12T00:50:05;4.00;;;1.88;;
22843;SDS011;11588;51.178;4.852;2023-08-12T00:52:31;6.88;;;2.13;;
22843;SDS011;11588;51.178;4.852;2023-08-12T00:54:58;4.97;;;1.65;;
22843;SDS011;11588;51.178;4.852;2023-08-12T00:57:24;5.10;;;1.30;;
22843;SDS011;11588;51.178;4.852;2023-08-12T00:59:51;6.20;;;2.03;;
22843;SDS011;11588;51.178;4.852;2023-08-12T01:02:18;3.20;;;1.95;;
22843;SDS011;11588;51.178;4.852;2023-08-12T01:04:45;3.70;;;1.67;;
22843;SDS011;11588;51.178;4.852;2023-08-12T01:07:12;4.20;;;1.95;;
22843;SDS011;11588;51.178;4.852;2023-08-12T01:09:38;5.25;;;1.85;;
22843;SDS011;11588;51.178;4.852;2023-08-12T01:12:09;4.50;;;1.92;;
22843;SDS011;11588;51.178;4.852;2023-08-12T01:17:18;4.57;;;1.88;;
22843;SDS011;11588;51.178;4.852;2023-08-12T01:19:47;4.75;;;1.65;;
22843;SDS011;11588;51.178;4.852;2023-08-12T01:22:14;3.78;;;2.00;;
22843;SDS011;11588;51.178;4.852;2023-08-12T01:24:43;3.38;;;2.03;;
22843;SDS011;11588;51.178;4.852;2023-08-12T01:27:10;3.38;;;1.70;;
22843;SDS011;11588;51.178;4.852;2023-08-12T01:29:38;2.50;;;1.48;;
22843;SDS011;11588;51.178;4.852;2023-08-12T01:32:08;4.30;;;2.10;;
22843;SDS011;11588;51.178;4.852;2023-08-12T01:34:41;4.60;;;1.90;;
22843;SDS011;11588;51.178;4.852;2023-08-12T01:37:11;2.33;;;1.42;;
22843;SDS011;11588;51.178;4.852;2023-08-12T01:39:43;6.40;;;1.50;;
22843;SDS011;11588;51.178;4.852;2023-08-12T01:42:10;4.80;;;1.65;;
22843;SDS011;11588;51.178;4.852;2023-08-12T01:44:37;5.78;;;2.17;;
22843;SDS011;11588;51.178;4.852;2023-08-12T01:47:04;2.80;;;1.20;;
22843;SDS011;11588;51.178;4.852;2023-08-12T01:49:30;3.08;;;1.80;;
22843;SDS011;11588;51.178;4.852;2023-08-12T01:51:56;1.67;;;1.15;;
22843;SDS011;11588;51.178;4.852;2023-08-12T01:54:24;6.72;;;1.33;;
22843;SDS011;11588;51.178;4.852;2023-08-12T01:56:50;3.25;;;1.55;;
22843;SDS011;11588;51.178;4.852;2023-08-12T01:59:19;3.58;;;1.83;;
22843;SDS011;11588;51.178;4.852;2023-08-12T02:01:47;3.15;;;1.95;;
22843;SDS011;11588;51.178;4.852;2023-08-12T02:04:12;2.60;;;1.55;;
22843;SDS011;11588;51.178;4.852;2023-08-12T02:06:38;5.55;;;1.67;;
22843;SDS011;11588;51.178;4.852;2023-08-12T02:09:05;2.47;;;1.45;;
22843;SDS011;11588;51.178;4.852;2023-08-12T02:11:32;4.13;;;1.40;;
22843;SDS011;11588;51.178;4.852;2023-08-12T02:13:59;2.58;;;1.33;;
22843;SDS011;11588;51.178;4.852;2023-08-12T02:16:25;4.40;;;1.23;;
22843;SDS011;11588;51.178;4.852;2023-08-12T02:18:52;3.00;;;1.58;;
22843;SDS011;11588;51.178;4.852;2023-08-12T02:21:19;2.00;;;1.20;;
22843;SDS011;11588;51.178;4.852;2023-08-12T02:23:45;2.78;;;1.35;;
22843;SDS011;11588;51.178;4.852;2023-08-12T02:26:12;3.05;;;1.35;;
22843;SDS011;11588;51.178;4.852;2023-08-12T02:28:38;2.97;;;1.48;;
22843;SDS011;11588;51.178;4.852;2023-08-12T02:31:05;3.33;;;1.48;;
22843;SDS011;11588;51.178;4.852;2023-08-12T02:33:31;6.70;;;2.25;;
22843;SDS011;11588;51.178;4.852;2023-08-12T02:35:58;4.95;;;1.45;;
22843;SDS011;11588;51.178;4.852;2023-08-12T02:38:25;3.95;;;2.17;;
22843;SDS011;11588;51.178;4.852;2023-08-12T02:40:51;1.92;;;1.10;;
22843;SDS011;11588;51.178;4.852;2023-08-12T02:43:18;5.75;;;2.08;;
22843;SDS011;11588;51.178;4.852;2023-08-12T02:45:44;3.92;;;1.65;;
22843;SDS011;11588;51.178;4.852;2023-08-12T02:48:10;2.30;;;1.25;;
22843;SDS011;11588;51.178;4.852;2023-08-12T02:50:37;1.75;;;1.17;;
22843;SDS011;11588;51.178;4.852;2023-08-12T02:53:04;1.83;;;1.20;;
22843;SDS011;11588;51.178;4.852;2023-08-12T02:55:31;4.03;;;1.50;;
22843;SDS011;11588;51.178;4.852;2023-08-12T02:57:59;2.47;;;1.60;;
22843;SDS011;11588;51.178;4.852;2023-08-12T03:00:25;2.65;;;1.23;;
22843;SDS011;11588;51.178;4.852;2023-08-12T03:02:51;2.53;;;1.65;;
22843;SDS011;11588;51.178;4.852;2023-08-12T03:05:18;2.45;;;1.75;;
22843;SDS011;11588;51.178;4.852;2023-08-12T03:07:45;6.00;;;2.05;;
22843;SDS011;11588;51.178;4.852;2023-08-12T03:10:12;2.75;;;1.25;;
22843;SDS011;11588;51.178;4.852;2023-08-12T03:12:38;4.47;;;2.35;;
22843;SDS011;11588;51.178;4.852;2023-08-12T03:15:06;3.03;;;1.23;;
22843;SDS011;11588;51.178;4.852;2023-08-12T03:17:38;2.85;;;1.80;;
22843;SDS011;11588;51.178;4.852;2023-08-12T03:20:06;2.08;;;1.50;;
22843;SDS011;11588;51.178;4.852;2023-08-12T03:22:36;10.52;;;2.22;;
22843;SDS011;11588;51.178;4.852;2023-08-12T03:25:05;2.88;;;1.63;;
22843;SDS011;11588;51.178;4.852;2023-08-12T03:27:32;3.42;;;1.60;;
22843;SDS011;11588;51.178;4.852;2023-08-12T03:29:59;5.97;;;1.35;;
22843;SDS011;11588;51.178;4.852;2023-08-12T03:32:25;2.45;;;1.52;;
22843;SDS011;11588;51.178;4.852;2023-08-12T03:34:52;7.10;;;2.10;;
22843;SDS011;11588;51.178;4.852;2023-08-12T03:37:19;3.63;;;1.42;;
22843;SDS011;11588;51.178;4.852;2023-08-12T03:39:45;4.28;;;2.05;;
22843;SDS011;11588;51.178;4.852;2023-08-12T03:42:12;3.10;;;1.63;;
22843;SDS011;11588;51.178;4.852;2023-08-12T03:44:38;2.80;;;1.40;;
22843;SDS011;11588;51.178;4.852;2023-08-12T03:47:05;3.03;;;1.98;;
22843;SDS011;11588;51.178;4.852;2023-08-12T03:49:31;4.20;;;2.00;;
22843;SDS011;11588;51.178;4.852;2023-08-12T03:51:58;4.00;;;1.90;;
22843;SDS011;11588;51.178;4.852;2023-08-12T03:54:25;3.08;;;1.73;;
22843;SDS011;11588;51.178;4.852;2023-08-12T03:56:51;3.35;;;1.98;;
22843;SDS011;11588;51.178;4.852;2023-08-12T03:59:18;4.85;;;2.53;;
22843;SDS011;11588;51.178;4.852;2023-08-12T04:01:44;2.47;;;1.70;;
22843;SDS011;11588;51.178;4.852;2023-08-12T04:04:10;3.70;;;1.48;;
22843;SDS011;11588;51.178;4.852;2023-08-12T04:06:37;4.63;;;1.95;;
22843;SDS011;11588;51.178;4.852;2023-08-12T04:09:04;5.32;;;1.77;;
22843;SDS011;11588;51.178;4.852;2023-08-12T04:11:31;3.05;;;1.88;;
22843;SDS011;11588;51.178;4.852;2023-08-12T04:13:58;4.63;;;1.73;;
22843;SDS011;11588;51.178;4.852;2023-08-12T04:16:24;6.00;;;2.13;;
22843;SDS011;11588;51.178;4.852;2023-08-12T04:18:52;4.00;;;1.92;;
22843;SDS011;11588;51.178;4.852;2023-08-12T04:21:19;3.47;;;1.33;;
22843;SDS011;11588;51.178;4.852;2023-08-12T04:23:46;4.13;;;2.22;;
22843;SDS011;11588;51.178;4.852;2023-08-12T04:26:11;2.15;;;1.77;;
22843;SDS011;11588;51.178;4.852;2023-08-12T04:28:38;2.25;;;1.60;;
22843;SDS011;11588;51.178;4.852;2023-08-12T04:31:05;2.65;;;1.40;;
22843;SDS011;11588;51.178;4.852;2023-08-12T04:33:32;2.80;;;1.35;;
22843;SDS011;11588;51.178;4.852;2023-08-12T04:35:59;2.35;;;1.25;;
22843;SDS011;11588;51.178;4.852;2023-08-12T04:38:25;2.88;;;1.60;;
22843;SDS011;11588;51.178;4.852;2023-08-12T04:40:52;2.78;;;1.15;;
22843;SDS011;11588;51.178;4.852;2023-08-12T04:43:19;2.78;;;1.42;;
22843;SDS011;11588;51.178;4.852;2023-08-12T04:45:46;0.82;;;0.70;;
22843;SDS011;11588;51.178;4.852;2023-08-12T04:48:14;1.83;;;1.33;;
22843;SDS011;11588;51.178;4.852;2023-08-12T04:50:42;2.55;;;1.30;;
22843;SDS011;11588;51.178;4.852;2023-08-12T04:53:08;1.92;;;1.25;;
22843;SDS011;11588;51.178;4.852;2023-08-12T04:55:35;2.35;;;1.40;;
22843;SDS011;11588;51.178;4.852;2023-08-12T04:58:02;1.65;;;1.02;;
22843;SDS011;11588;51.178;4.852;2023-08-12T05:00:29;3.55;;;1.25;;
22843;SDS011;11588;51.178;4.852;2023-08-12T05:02:56;3.03;;;1.38;;
22843;SDS011;11588;51.178;4.852;2023-08-12T05:05:22;3.22;;;1.10;;
22843;SDS011;11588;51.178;4.852;2023-08-12T05:07:49;2.28;;;1.23;;
22843;SDS011;11588;51.178;4.852;2023-08-12T05:10:16;3.70;;;1.65;;
22843;SDS011;11588;51.178;4.852;2023-08-12T05:12:43;1.75;;;1.13;;
22843;SDS011;11588;51.178;4.852;2023-08-12T05:15:10;2.35;;;1.23;;
22843;SDS011;11588;51.178;4.852;2023-08-12T05:17:36;2.65;;;1.33;;
22843;SDS011;11588;51.178;4.852;2023-08-12T05:20:03;1.80;;;1.20;;
22843;SDS011;11588;51.178;4.852;2023-08-12T05:22:30;1.42;;;0.85;;
22843;SDS011;11588;51.178;4.852;2023-08-12T05:24:57;1.52;;;1.13;;
22843;SDS011;11588;51.178;4.852;2023-08-12T05:27:24;2.55;;;1.38;;
22843;SDS011;11588;51.178;4.852;2023-08-12T05:29:50;2.35;;;1.17;;
22843;SDS011;11588;51.178;4.852;2023-08-12T05:32:20;2.42;;;1.67;;
22843;SDS011;11588;51.178;4.852;2023-08-12T05:34:45;2.30;;;1.15;;
22843;SDS011;11588;51.178;4.852;2023-08-12T05:37:16;2.38;;;1.77;;
22843;SDS011;11588;51.178;4.852;2023-08-12T05:39:42;2.17;;;1.40;;
22843;SDS011;11588;51.178;4.852;2023-08-12T05:42:10;3.00;;;1.63;;
22843;SDS011;11588;51.178;4.852;2023-08-12T05:44:36;2.13;;;1.42;;
22843;SDS011;11588;51.178;4.852;2023-08-12T05:47:03;4.47;;;1.83;;
22843;SDS011;11588;51.178;4.852;2023-08-12T05:49:30;3.38;;;1.15;;
22843;SDS011;11588;51.178;4.852;2023-08-12T05:51:56;1.80;;;1.05;;
22843;SDS011;11588;51.178;4.852;2023-08-12T05:54:23;1.92;;;1.02;;
22843;SDS011;11588;51.178;4.852;2023-08-12T05:56:50;1.88;;;1.13;;
22843;SDS011;11588;51.178;4.852;2023-08-12T05:59:16;1.38;;;0.68;;
22843;SDS011;11588;51.178;4.852;2023-08-12T06:01:43;0.80;;;0.43;;
22843;SDS011;11588;51.178;4.852;2023-08-12T06:04:13;1.00;;;0.75;;
22843;SDS011;11588;51.178;4.852;2023-08-12T06:06:41;1.13;;;0.50;;
22843;SDS011;11588;51.178;4.852;2023-08-12T06:09:08;0.80;;;0.65;;
22843;SDS011;11588;51.178;4.852;2023-08-12T06:11:35;0.85;;;0.50;;
22843;SDS011;11588;51.178;4.852;2023-08-12T06:14:01;1.80;;;0.73;;
22843;SDS011;11588;51.178;4.852;2023-08-12T06:16:28;0.93;;;0.50;;
22843;SDS011;11588;51.178;4.852;2023-08-12T06:18:55;1.02;;;0.40;;
22843;SDS011;11588;51.178;4.852;2023-08-12T06:21:22;0.20;;;0.20;;
22843;SDS011;11588;51.178;4.852;2023-08-12T06:23:48;0.47;;;0.20;;
22843;SDS011;11588;51.178;4.852;2023-08-12T06:26:15;0.57;;;0.32;;
22843;SDS011;11588;51.178;4.852;2023-08-12T06:28:42;6.85;;;0.85;;
22843;SDS011;11588;51.178;4.852;2023-08-12T06:31:09;0.20;;;0.20;;
22843;SDS011;11588;51.178;4.852;2023-08-12T06:33:36;0.50;;;0.32;;
22843;SDS011;11588;51.178;4.852;2023-08-12T06:36:03;0.30;;;0.20;;
22843;SDS011;11588;51.178;4.852;2023-08-12T06:38:29;0.40;;;0.30;;
22843;SDS011;11588;51.178;4.852;2023-08-12T06:40:56;0.85;;;0.50;;
22843;SDS011;11588;51.178;4.852;2023-08-12T06:43:23;0.40;;;0.20;;
22843;SDS011;11588;51.178;4.852;2023-08-12T06:45:49;0.20;;;0.10;;
22843;SDS011;11588;51.178;4.852;2023-08-12T06:48:16;0.10;;;0.10;;
22843;SDS011;11588;51.178;4.852;2023-08-12T06:50:43;0.20;;;0.15;;
22843;SDS011;11588;51.178;4.852;2023-08-12T06:53:09;0.20;;;0.20;;
22843;SDS011;11588;51.178;4.852;2023-08-12T06:55:42;0.45;;;0.20;;
22843;SDS011;11588;51.178;4.852;2023-08-12T06:58:16;0.63;;;0.32;;
22843;SDS011;11588;51.178;4.852;2023-08-12T07:00:42;0.63;;;0.50;;
22843;SDS011;11588;51.178;4.852;2023-08-12T07:03:09;1.23;;;0.68;;
22843;SDS011;11588;51.178;4.852;2023-08-12T07:05:39;1.05;;;0.52;;
22843;SDS011;11588;51.178;4.852;2023-08-12T07:08:06;1.05;;;0.70;;
22843;SDS011;11588;51.178;4.852;2023-08-12T07:10:33;2.13;;;0.82;;
22843;SDS011;11588;51.178;4.852;2023-08-12T07:12:59;1.30;;;0.60;;
22843;SDS011;11588;51.178;4.852;2023-08-12T07:15:25;0.60;;;0.50;;
22843;SDS011;11588;51.178;4.852;2023-08-12T07:17:52;0.52;;;0.43;;
22843;SDS011;11588;51.178;4.852;2023-08-12T07:20:19;0.65;;;0.43;;
22843;SDS011;11588;51.178;4.852;2023-08-12T07:22:45;0.65;;;0.20;;
22843;SDS011;11588;51.178;4.852;2023-08-12T07:25:12;2.78;;;0.70;;
22843;SDS011;11588;51.178;4.852;2023-08-12T07:27:39;0.55;;;0.30;;
22843;SDS011;11588;51.178;4.852;2023-08-12T07:30:06;0.68;;;0.30;;
22843;SDS011;11588;51.178;4.852;2023-08-12T07:32:33;0.73;;;0.30;;
22843;SDS011;11588;51.178;4.852;2023-08-12T07:35:00;0.10;;;0.10;;
22843;SDS011;11588;51.178;4.852;2023-08-12T07:37:28;0.38;;;0.25;;
22843;SDS011;11588;51.178;4.852;2023-08-12T07:39:54;1.45;;;0.73;;
22843;SDS011;11588;51.178;4.852;2023-08-12T07:42:21;1.63;;;0.45;;
22843;SDS011;11588;51.178;4.852;2023-08-12T07:44:48;1.75;;;0.50;;
22843;SDS011;11588;51.178;4.852;2023-08-12T07:47:15;3.30;;;0.50;;
22843;SDS011;11588;51.178;4.852;2023-08-12T07:49:42;2.08;;;0.22;;
22843;SDS011;11588;51.178;4.852;2023-08-12T07:52:09;1.05;;;0.95;;
22843;SDS011;11588;51.178;4.852;2023-08-12T07:54:36;0.60;;;0.32;;
22843;SDS011;11588;51.178;4.852;2023-08-12T07:57:03;0.20;;;0.20;;
22843;SDS011;11588;51.178;4.852;2023-08-12T07:59:30;1.60;;;0.90;;
22843;SDS011;11588;51.178;4.852;2023-08-12T08:01:56;0.38;;;0.30;;
22843;SDS011;11588;51.178;4.852;2023-08-12T08:04:23;1.95;;;0.38;;
22843;SDS011;11588;51.178;4.852;2023-08-12T08:06:50;1.10;;;0.55;;
22843;SDS011;11588;51.178;4.852;2023-08-12T08:09:16;0.82;;;0.43;;
22843;SDS011;11588;51.178;4.852;2023-08-12T08:11:43;1.60;;;0.43;;
22843;SDS011;11588;51.178;4.852;2023-08-12T08:14:09;1.40;;;0.50;;
22843;SDS011;11588;51.178;4.852;2023-08-12T08:16:37;1.38;;;0.47;;
22843;SDS011;11588;51.178;4.852;2023-08-12T08:19:06;1.75;;;0.65;;
22843;SDS011;11588;51.178;4.852;2023-08-12T08:21:36;0.52;;;0.35;;
22843;SDS011;11588;51.178;4.852;2023-08-12T08:24:02;1.13;;;0.50;;
22843;SDS011;11588;51.178;4.852;2023-08-12T08:26:29;2.97;;;0.80;;
22843;SDS011;11588;51.178;4.852;2023-08-12T08:28:56;3.15;;;0.73;;
22843;SDS011;11588;51.178;4.852;2023-08-12T08:31:23;1.92;;;0.80;;
22843;SDS011;11588;51.178;4.852;2023-08-12T08:33:49;1.23;;;0.65;;
22843;SDS011;11588;51.178;4.852;2023-08-12T08:36:16;4.03;;;2.03;;
22843;SDS011;11588;51.178;4.852;2023-08-12T08:38:44;1.45;;;0.55;;
22843;SDS011;11588;51.178;4.852;2023-08-12T08:41:13;1.17;;;0.80;;
22843;SDS011;11588;51.178;4.852;2023-08-12T08:43:40;1.23;;;0.90;;
22843;SDS011;11588;51.178;4.852;2023-08-12T08:46:09;3.65;;;0.80;;
22843;SDS011;11588;51.178;4.852;2023-08-12T08:48:37;2.10;;;0.95;;
22843;SDS011;11588;51.178;4.852;2023-08-12T08:51:05;2.35;;;0.75;;
22843;SDS011;11588;51.178;4.852;2023-08-12T08:53:33;1.10;;;0.60;;
22843;SDS011;11588;51.178;4.852;2023-08-12T08:56:01;3.25;;;1.33;;
22843;SDS011;11588;51.178;4.852;2023-08-12T08:58:27;2.05;;;0.70;;
22843;SDS011;11588;51.178;4.852;2023-08-12T09:00:56;1.08;;;0.68;;
22843;SDS011;11588;51.178;4.852;2023-08-12T09:03:23;3.20;;;1.02;;
22843;SDS011;11588;51.178;4.852;2023-08-12T09:05:50;2.63;;;0.88;;
22843;SDS011;11588;51.178;4.852;2023-08-12T09:08:19;1.85;;;0.50;;
22843;SDS011;11588;51.178;4.852;2023-08-12T09:10:50;0.60;;;0.40;;
22843;SDS011;11588;51.178;4.852;2023-08-12T09:13:17;1.10;;;0.82;;
22843;SDS011;11588;51.178;4.852;2023-08-12T09:15:44;1.15;;;0.40;;
22843;SDS011;11588;51.178;4.852;2023-08-12T09:18:10;0.60;;;0.40;;
22843;SDS011;11588;51.178;4.852;2023-08-12T09:20:36;0.20;;;0.20;;
22843;SDS011;11588;51.178;4.852;2023-08-12T09:23:04;0.70;;;0.52;;
22843;SDS011;11588;51.178;4.852;2023-08-12T09:25:30;0.85;;;0.57;;
22843;SDS011;11588;51.178;4.852;2023-08-12T09:27:58;2.08;;;0.70;;
22843;SDS011;11588;51.178;4.852;2023-08-12T09:30:28;2.60;;;0.73;;
22843;SDS011;11588;51.178;4.852;2023-08-12T09:32:57;2.20;;;0.85;;
22843;SDS011;11588;51.178;4.852;2023-08-12T09:35:24;3.42;;;1.02;;
22843;SDS011;11588;51.178;4.852;2023-08-12T09:38:03;4.47;;;1.05;;
22843;SDS011;11588;51.178;4.852;2023-08-12T09:40:34;3.85;;;1.10;;
22843;SDS011;11588;51.178;4.852;2023-08-12T09:43:02;2.97;;;1.05;;
22843;SDS011;11588;51.178;4.852;2023-08-12T09:45:30;2.58;;;1.10;;
22843;SDS011;11588;51.178;4.852;2023-08-12T09:47:57;2.65;;;1.23;;
22843;SDS011;11588;51.178;4.852;2023-08-12T09:50:24;4.00;;;1.48;;
22843;SDS011;11588;51.178;4.852;2023-08-12T09:52:52;3.25;;;1.20;;
22843;SDS011;11588;51.178;4.852;2023-08-12T09:55:20;3.03;;;1.08;;
22843;SDS011;11588;51.178;4.852;2023-08-12T09:57:49;3.30;;;1.20;;
22843;SDS011;11588;51.178;4.852;2023-08-12T10:00:19;3.22;;;1.38;;
22843;SDS011;11588;51.178;4.852;2023-08-12T10:02:47;2.65;;;0.80;;
22843;SDS011;11588;51.178;4.852;2023-08-12T10:05:16;1.60;;;1.30;;
22843;SDS011;11588;51.178;4.852;2023-08-12T10:07:48;3.30;;;0.93;;
22843;SDS011;11588;51.178;4.852;2023-08-12T10:10:15;2.13;;;1.00;;
22843;SDS011;11588;51.178;4.852;2023-08-12T10:12:42;2.70;;;0.82;;
22843;SDS011;11588;51.178;4.852;2023-08-12T10:15:09;4.55;;;1.00;;
22843;SDS011;11588;51.178;4.852;2023-08-12T10:17:37;3.50;;;1.35;;
22843;SDS011;11588;51.178;4.852;2023-08-12T10:20:04;2.10;;;0.85;;
22843;SDS011;11588;51.178;4.852;2023-08-12T10:22:31;1.90;;;0.68;;
22843;SDS011;11588;51.178;4.852;2023-08-12T10:24:59;5.20;;;1.13;;
22843;SDS011;11588;51.178;4.852;2023-08-12T10:27:27;2.40;;;0.98;;
22843;SDS011;11588;51.178;4.852;2023-08-12T10:29:57;4.10;;;1.25;;
22843;SDS011;11588;51.178;4.852;2023-08-12T10:32:24;1.63;;;1.00;;
22843;SDS011;11588;51.178;4.852;2023-08-12T10:34:54;4.00;;;1.55;;
22843;SDS011;11588;51.178;4.852;2023-08-12T10:37:24;2.63;;;1.48;;
22843;SDS011;11588;51.178;4.852;2023-08-12T10:39:52;4.25;;;2.28;;
22843;SDS011;11588;51.178;4.852;2023-08-12T10:44:57;3.13;;;1.98;;
22843;SDS011;11588;51.178;4.852;2023-08-12T10:47:24;2.08;;;1.33;;
22843;SDS011;11588;51.178;4.852;2023-08-12T10:49:51;4.20;;;1.90;;
22843;SDS011;11588;51.178;4.852;2023-08-12T10:52:26;6.75;;;2.72;;
22843;SDS011;11588;51.178;4.852;2023-08-12T10:57:35;6.78;;;3.22;;
22843;SDS011;11588;51.178;4.852;2023-08-12T11:00:04;5.70;;;3.83;;
22843;SDS011;11588;51.178;4.852;2023-08-12T11:02:31;3.75;;;2.28;;
22843;SDS011;11588;51.178;4.852;2023-08-12T11:17:57;2.42;;;2.22;;
22843;SDS011;11588;51.178;4.852;2023-08-12T11:20:24;2.90;;;1.38;;
22843;SDS011;11588;51.178;4.852;2023-08-12T11:22:51;3.28;;;1.10;;
22843;SDS011;11588;51.178;4.852;2023-08-12T11:25:18;3.05;;;1.00;;
22843;SDS011;11588;51.178;4.852;2023-08-12T11:27:45;1.08;;;1.02;;
22843;SDS011;11588;51.178;4.852;2023-08-12T11:30:14;7.80;;;1.63;;
22843;SDS011;11588;51.178;4.852;2023-08-12T11:32:43;2.20;;;1.10;;
22843;SDS011;11588;51.178;4.852;2023-08-12T11:35:12;2.50;;;1.27;;
22843;SDS011;11588;51.178;4.852;2023-08-12T11:37:40;2.75;;;0.90;;
22843;SDS011;11588;51.178;4.852;2023-08-12T11:40:09;2.80;;;1.10;;
22843;SDS011;11588;51.178;4.852;2023-08-12T11:42:37;1.83;;;1.20;;
22843;SDS011;11588;51.178;4.852;2023-08-12T11:45:04;2.70;;;0.73;;
22843;SDS011;11588;51.178;4.852;2023-08-12T11:47:31;2.47;;;1.20;;
22843;SDS011;11588;51.178;4.852;2023-08-12T11:49:58;4.22;;;0.70;;
22843;SDS011;11588;51.178;4.852;2023-08-12T11:52:24;1.48;;;0.55;;
22843;SDS011;11588;51.178;4.852;2023-08-12T11:54:51;3.63;;;0.43;;
22843;SDS011;11588;51.178;4.852;2023-08-12T11:57:18;1.20;;;0.50;;
22843;SDS011;11588;51.178;4.852;2023-08-12T11:59:45;1.23;;;0.50;;
22843;SDS011;11588;51.178;4.852;2023-08-12T12:02:12;1.00;;;0.50;;
22843;SDS011;11588;51.178;4.852;2023-08-12T12:04:40;3.05;;;0.40;;
22843;SDS011;11588;51.178;4.852;2023-08-12T12:07:16;0.80;;;0.50;;
22843;SDS011;11588;51.178;4.852;2023-08-12T12:09:45;2.72;;;0.60;;
22843;SDS011;11588;51.178;4.852;2023-08-12T12:12:11;2.03;;;0.52;;
22843;SDS011;11588;51.178;4.852;2023-08-12T12:14:38;2.45;;;0.60;;
22843;SDS011;11588;51.178;4.852;2023-08-12T12:17:08;0.75;;;0.38;;
22843;SDS011;11588;51.178;4.852;2023-08-12T12:19:36;3.58;;;0.40;;
22843;SDS011;11588;51.178;4.852;2023-08-12T12:22:07;0.88;;;0.40;;
22843;SDS011;11588;51.178;4.852;2023-08-12T12:24:43;0.65;;;0.20;;
22843;SDS011;11588;51.178;4.852;2023-08-12T12:27:13;0.98;;;0.45;;
22843;SDS011;11588;51.178;4.852;2023-08-12T12:29:40;1.55;;;0.82;;
22843;SDS011;11588;51.178;4.852;2023-08-12T12:32:07;1.95;;;0.47;;
22843;SDS011;11588;51.178;4.852;2023-08-12T12:34:33;2.17;;;0.47;;
22843;SDS011;11588;51.178;4.852;2023-08-12T12:37:00;3.30;;;0.50;;
22843;SDS011;11588;51.178;4.852;2023-08-12T12:39:27;2.28;;;0.60;;
22843;SDS011;11588;51.178;4.852;2023-08-12T12:41:54;2.03;;;0.52;;
22843;SDS011;11588;51.178;4.852;2023-08-12T12:44:20;1.42;;;0.45;;
22843;SDS011;11588;51.178;4.852;2023-08-12T12:46:47;1.85;;;0.50;;
22843;SDS011;11588;51.178;4.852;2023-08-12T12:49:14;0.80;;;0.43;;
22843;SDS011;11588;51.178;4.852;2023-08-12T12:51:40;1.00;;;0.90;;
22843;SDS011;11588;51.178;4.852;2023-08-12T12:54:07;1.92;;;0.60;;
22843;SDS011;11588;51.178;4.852;2023-08-12T12:56:34;0.50;;;0.35;;
22843;SDS011;11588;51.178;4.852;2023-08-12T12:59:01;1.80;;;0.40;;
22843;SDS011;11588;51.178;4.852;2023-08-12T13:01:27;1.30;;;0.50;;
22843;SDS011;11588;51.178;4.852;2023-08-12T13:03:54;4.15;;;0.90;;
22843;SDS011;11588;51.178;4.852;2023-08-12T13:06:21;2.33;;;0.75;;
22843;SDS011;11588;51.178;4.852;2023-08-12T13:08:47;2.20;;;0.70;;
22843;SDS011;11588;51.178;4.852;2023-08-12T13:11:16;1.48;;;0.70;;
22843;SDS011;11588;51.178;4.852;2023-08-12T13:13:43;1.35;;;0.50;;
22843;SDS011;11588;51.178;4.852;2023-08-12T13:16:09;2.20;;;0.50;;
22843;SDS011;11588;51.178;4.852;2023-08-12T13:18:36;1.98;;;0.65;;
22843;SDS011;11588;51.178;4.852;2023-08-12T13:21:03;1.52;;;0.75;;
22843;SDS011;11588;51.178;4.852;2023-08-12T13:23:28;2.85;;;0.70;;
22843;SDS011;11588;51.178;4.852;2023-08-12T13:25:55;0.57;;;0.38;;
22843;SDS011;11588;51.178;4.852;2023-08-12T13:28:22;1.98;;;0.40;;
22843;SDS011;11588;51.178;4.852;2023-08-12T13:30:49;2.15;;;0.60;;
22843;SDS011;11588;51.178;4.852;2023-08-12T13:33:16;1.90;;;0.43;;
22843;SDS011;11588;51.178;4.852;2023-08-12T13:35:43;2.67;;;0.50;;
22843;SDS011;11588;51.178;4.852;2023-08-12T13:38:09;2.00;;;0.50;;
22843;SDS011;11588;51.178;4.852;2023-08-12T13:40:36;1.95;;;0.32;;
22843;SDS011;11588;51.178;4.852;2023-08-12T13:43:03;1.30;;;0.32;;
22843;SDS011;11588;51.178;4.852;2023-08-12T13:45:30;3.58;;;0.60;;
22843;SDS011;11588;51.178;4.852;2023-08-12T13:47:56;1.23;;;0.70;;
22843;SDS011;11588;51.178;4.852;2023-08-12T13:50:23;2.65;;;0.50;;
22843;SDS011;11588;51.178;4.852;2023-08-12T13:52:50;0.38;;;0.28;;
22843;SDS011;11588;51.178;4.852;2023-08-12T13:55:18;1.00;;;0.30;;
22843;SDS011;11588;51.178;4.852;2023-08-12T13:57:44;0.52;;;0.38;;
22843;SDS011;11588;51.178;4.852;2023-08-12T14:00:11;1.48;;;0.38;;
22843;SDS011;11588;51.178;4.852;2023-08-12T14:02:40;1.13;;;0.30;;
22843;SDS011;11588;51.178;4.852;2023-08-12T14:05:07;1.58;;;0.32;;
22843;SDS011;11588;51.178;4.852;2023-08-12T14:07:34;3.30;;;0.40;;
22843;SDS011;11588;51.178;4.852;2023-08-12T14:10:01;1.55;;;0.30;;
22843;SDS011;11588;51.178;4.852;2023-08-12T14:12:29;0.95;;;0.40;;
22843;SDS011;11588;51.178;4.852;2023-08-12T14:14:56;0.98;;;0.35;;
22843;SDS011;11588;51.178;4.852;2023-08-12T14:17:23;1.63;;;0.43;;
22843;SDS011;11588;51.178;4.852;2023-08-12T14:19:52;1.27;;;0.35;;
22843;SDS011;11588;51.178;4.852;2023-08-12T14:22:20;3.20;;;0.45;;
22843;SDS011;11588;51.178;4.852;2023-08-12T14:24:48;0.88;;;0.40;;
22843;SDS011;11588;51.178;4.852;2023-08-12T14:27:17;1.60;;;0.70;;
22843;SDS011;11588;51.178;4.852;2023-08-12T14:29:48;1.60;;;0.57;;
22843;SDS011;11588;51.178;4.852;2023-08-12T14:32:14;3.25;;;0.90;;
22843;SDS011;11588;51.178;4.852;2023-08-12T14:34:42;2.17;;;0.50;;
22843;SDS011;11588;51.178;4.852;2023-08-12T14:37:11;2.33;;;0.40;;
22843;SDS011;11588;51.178;4.852;2023-08-12T14:39:38;0.75;;;0.50;;
22843;SDS011;11588;51.178;4.852;2023-08-12T14:42:05;1.35;;;0.60;;
22843;SDS011;11588;51.178;4.852;2023-08-12T14:44:32;4.03;;;0.90;;
22843;SDS011;11588;51.178;4.852;2023-08-12T14:47:01;2.05;;;0.50;;
22843;SDS011;11588;51.178;4.852;2023-08-12T14:49:27;2.25;;;0.50;;
22843;SDS011;11588;51.178;4.852;2023-08-12T14:51:54;2.33;;;0.47;;
22843;SDS011;11588;51.178;4.852;2023-08-12T14:54:23;1.35;;;0.43;;
22843;SDS011;11588;51.178;4.852;2023-08-12T14:56:50;3.65;;;0.60;;
22843;SDS011;11588;51.178;4.852;2023-08-12T14:59:17;2.42;;;0.93;;
22843;SDS011;11588;51.178;4.852;2023-08-12T15:01:44;4.38;;;0.68;;
22843;SDS011;11588;51.178;4.852;2023-08-12T15:04:10;1.13;;;0.50;;
22843;SDS011;11588;51.178;4.852;2023-08-12T15:06:37;4.40;;;0.68;;
22843;SDS011;11588;51.178;4.852;2023-08-12T15:09:04;2.63;;;0.68;;